Time;durP1;ratioP1;P1;durP2;ratioP2;P2;SDS_P1;SDS_P2;PMS_P1;PMS_P2;Temp;Humidity;BMP_temperature;BMP_pressure;BME280_temperature;BME280_humidity;BME280_pressure;Samples;Min_cycle;Max_cycle;Signal;HPM_P1;HPM_P2
2023/10/12 00:01:59;;;;;;;;;6.00;4.50;;;;;17.50;90.17;101116.03;4971844;28;9540;-70
2023/10/12 00:04:50;;;;;;;;;4.00;4.00;;;;;17.50;89.96;101119.59;4967753;28;8940;-70
2023/10/12 00:07:18;;;;;;;;;4.50;4.50;;;;;17.47;89.78;101121.97;4964228;28;8932;-70
2023/10/12 00:09:48;;;;;;;;;7.00;5.25;;;;;17.38;89.29;101126.91;4984802;28;8985;-70
2023/10/12 00:12:23;;;;;;;;;3.75;3.00;;;;;17.33;89.83;101129.47;4975864;28;8820;-70
2023/10/12 00:14:54;;;;;;;;;2.00;2.00;;;;;17.27;89.57;101122.25;4976459;28;8842;-70
2023/10/12 00:17:23;;;;;;;;;1.50;0.25;;;;;17.22;90.16;101139.28;4967762;28;8876;-70
2023/10/12 00:19:51;;;;;;;;;1.00;1.00;;;;;17.18;89.82;101145.41;4973530;28;8882;-70
2023/10/12 00:22:17;;;;;;;;;0.00;0.00;;;;;17.15;90.41;101137.69;4969551;28;8841;-70
2023/10/12 00:24:44;;;;;;;;;0.00;0.00;;;;;17.16;89.96;101144.78;4968933;28;8833;-70
2023/10/12 00:27:15;;;;;;;;;0.00;0.00;;;;;17.12;90.17;101141.69;4970719;28;8980;-70
2023/10/12 00:29:41;;;;;;;;;0.00;0.00;;;;;17.09;90.07;101146.78;4975314;28;8870;-70
2023/10/12 00:32:09;;;;;;;;;0.00;0.00;;;;;17.07;89.87;101149.72;4970778;28;8850;-70
2023/10/12 00:34:46;;;;;;;;;0.00;0.00;;;;;17.04;89.93;101150.19;4961094;28;8967;-70
2023/10/12 00:37:13;;;;;;;;;1.00;0.00;;;;;17.03;90.28;101146.63;4973495;28;8920;-70
2023/10/12 00:39:47;;;;;;;;;0.75;0.00;;;;;17.06;90.05;101164.41;4968529;28;8850;-70
2023/10/12 00:42:17;;;;;;;;;0.00;0.00;;;;;17.05;89.71;101163.56;4969535;28;8838;-70
2023/10/12 00:44:47;;;;;;;;;0.00;0.00;;;;;17.04;89.53;101167.31;4969691;28;9776;-70
2023/10/12 00:47:28;;;;;;;;;0.00;0.00;;;;;16.96;89.14;101169.53;4985341;28;8841;-70
2023/10/12 00:49:58;;;;;;;;;0.00;0.00;;;;;16.84;89.42;101176.78;4983119;28;8885;-70
2023/10/12 00:52:35;;;;;;;;;0.00;0.00;;;;;16.77;89.93;101175.00;4970834;28;8838;-70
2023/10/12 00:55:21;;;;;;;;;0.00;0.00;;;;;16.72;89.61;101185.66;4968654;28;8865;-70
2023/10/12 00:57:52;;;;;;;;;0.00;0.00;;;;;16.68;89.64;101187.19;4967579;28;9007;-70
2023/10/12 01:00:20;;;;;;;;;0.00;0.00;;;;;16.65;89.49;101179.50;4975175;28;8838;-70
2023/10/12 01:03:08;;;;;;;;;0.00;0.00;;;;;16.67;89.49;101182.81;4969595;28;8920;-70
2023/10/12 01:05:36;;;;;;;;;0.00;0.00;;;;;16.68;89.03;101179.03;4962357;28;10164;-70
2023/10/12 01:08:04;;;;;;;;;0.00;0.00;;;;;16.65;88.80;101178.66;4973700;28;8845;-70
2023/10/12 01:10:33;;;;;;;;;0.00;0.00;;;;;16.63;88.94;101176.16;4975940;28;8896;-70
2023/10/12 01:13:02;;;;;;;;;0.00;0.00;;;;;16.59;88.73;101177.69;4977721;28;8978;-70
2023/10/12 01:15:31;;;;;;;;;0.25;0.00;;;;;16.55;88.68;101180.00;4981032;28;8846;-70
2023/10/12 01:17:58;;;;;;;;;0.00;0.00;;;;;16.55;88.75;101173.75;4956042;28;8891;-70
2023/10/12 01:20:29;;;;;;;;;0.00;0.00;;;;;16.52;88.18;101180.44;4967404;28;8853;-70
2023/10/12 01:22:59;;;;;;;;;0.00;0.00;;;;;16.52;88.32;101174.19;4978018;28;8863;-70
2023/10/12 01:25:29;;;;;;;;;0.00;0.00;;;;;16.54;88.13;101172.09;4956320;28;8826;-70
2023/10/12 01:27:56;;;;;;;;;0.00;0.00;;;;;16.54;88.25;101159.34;4973245;28;8908;-70
2023/10/12 01:30:22;;;;;;;;;0.00;0.00;;;;;16.52;88.22;101161.44;4973239;28;8868;-70
2023/10/12 01:32:54;;;;;;;;;0.00;0.00;;;;;16.53;87.76;101162.28;4973732;28;8838;-70
2023/10/12 01:35:33;;;;;;;;;0.00;0.00;;;;;16.51;87.76;101167.09;4956148;28;9560;-70
2023/10/12 01:38:00;;;;;;;;;0.00;0.00;;;;;16.49;87.80;101164.63;4971867;28;8822;-70
2023/10/12 01:40:40;;;;;;;;;0.00;0.00;;;;;16.52;87.82;101166.03;4971763;28;8989;-69
2023/10/12 01:43:12;;;;;;;;;0.00;0.00;;;;;16.48;87.69;101171.09;4983271;28;8836;-70
2023/10/12 01:45:41;;;;;;;;;0.00;0.00;;;;;16.44;87.86;101161.72;4984132;28;9579;-69
2023/10/12 01:48:11;;;;;;;;;0.00;0.00;;;;;16.38;87.56;101165.34;4972728;28;8852;-70
2023/10/12 01:50:39;;;;;;;;;0.00;0.00;;;;;16.36;87.72;101164.75;4975087;28;8853;-69
2023/10/12 01:55:47;;;;;;;;;0.00;0.00;;;;;16.24;86.86;101172.78;4970870;28;8834;-69
2023/10/12 01:58:23;;;;;;;;;0.00;0.00;;;;;16.19;87.77;101175.34;4979270;28;8929;-70
2023/10/12 02:00:52;;;;;;;;;0.00;0.00;;;;;16.14;88.17;101175.19;4979762;28;8838;-70
2023/10/12 02:03:26;;;;;;;;;0.00;0.00;;;;;16.15;87.74;101176.03;4955375;28;8842;-70
2023/10/12 02:05:59;;;;;;;;;0.00;0.00;;;;;16.14;87.68;101177.09;4979282;28;8878;-70
2023/10/12 02:08:32;;;;;;;;;0.00;0.00;;;;;16.10;87.58;101179.41;4972608;28;8825;-69
2023/10/12 02:11:26;;;;;;;;;0.00;0.00;;;;;16.08;87.76;101181.50;4972557;28;8849;-70
2023/10/12 02:14:00;;;;;;;;;0.00;0.00;;;;;16.00;87.11;101174.50;4971568;28;9595;-70
2023/10/12 02:16:31;;;;;;;;;0.00;0.00;;;;;15.89;87.60;101188.78;4983199;28;8973;-69
2023/10/12 02:19:04;;;;;;;;;0.00;0.00;;;;;15.80;87.25;101195.53;4978551;28;8873;-70
2023/10/12 02:21:40;;;;;;;;;0.00;0.00;;;;;15.71;87.10;101189.53;4970022;28;8862;-70
2023/10/12 02:34:18;;;;;;;;;0.00;0.00;;;;;15.72;87.25;101196.63;4980756;28;8858;-70
2023/10/12 02:37:04;;;;;;;;;0.00;0.00;;;;;15.73;87.15;101198.28;4971478;28;8917;-69
2023/10/12 02:39:37;;;;;;;;;1.00;0.00;;;;;15.73;87.06;101190.16;4971820;28;9568;-69
2023/10/12 02:42:17;;;;;;;;;0.00;0.00;;;;;15.75;86.81;101195.34;4965572;28;8979;-69
2023/10/12 02:47:22;;;;;;;;;0.00;0.00;;;;;15.75;86.42;101196.19;4971274;28;8937;-69
2023/10/12 02:52:37;;;;;;;;;0.00;0.00;;;;;15.75;86.36;101190.75;4971700;28;8846;-70
2023/10/12 02:58:06;;;;;;;;;0.75;0.00;;;;;15.72;86.19;101202.06;4972005;28;8860;-70
2023/10/12 03:03:07;;;;;;;;;1.00;0.00;;;;;15.69;86.16;101196.25;4974217;28;8838;-70
2023/10/12 03:05:47;;;;;;;;;0.00;0.00;;;;;15.70;86.40;101187.88;4978933;28;8819;-70
2023/10/12 03:08:19;;;;;;;;;0.00;0.00;;;;;15.67;86.17;101191.00;4970292;28;8869;-70
2023/10/12 03:13:35;;;;;;;;;0.00;0.00;;;;;15.68;86.01;101186.44;4972156;28;8826;-70
2023/10/12 03:16:21;;;;;;;;;0.75;0.75;;;;;15.67;85.89;101171.19;4968551;28;8853;-70
2023/10/12 03:19:35;;;;;;;;;2.00;0.00;;;;;15.64;85.41;101166.16;4985890;28;8849;-70
2023/10/12 03:21:40;;;;;;;;;0.00;0.00;;;;;15.62;86.02;101163.69;4964274;28;8830;-70
2023/10/12 03:24:10;;;;;;;;;0.00;0.00;;;;;15.55;85.51;101161.00;4967844;28;8962;-70
2023/10/12 03:26:36;;;;;;;;;0.75;0.00;;;;;15.52;85.94;101166.88;4974419;28;8931;-70
2023/10/12 03:34:30;;;;;;;;;0.00;0.00;;;;;15.43;85.90;101189.06;4974071;28;8826;-69
2023/10/12 03:36:58;;;;;;;;;1.00;1.00;;;;;15.44;86.25;101197.00;4968663;28;9516;-70
2023/10/12 03:39:27;;;;;;;;;1.75;0.00;;;;;15.47;86.16;101196.53;4974449;28;8855;-69
2023/10/12 03:41:55;;;;;;;;;0.75;0.75;;;;;15.49;85.87;101190.91;4980246;28;8844;-70
2023/10/12 03:52:34;;;;;;;;;0.00;0.00;;;;;15.46;85.95;101192.16;4971522;28;8826;-69
2023/10/12 04:03:05;;;;;;;;;1.00;0.00;;;;;15.48;86.11;101198.22;4968348;28;8838;-69
2023/10/12 04:18:33;;;;;;;;;0.00;0.00;;;;;15.45;85.85;101227.66;4976905;28;9590;-69
2023/10/12 04:21:02;;;;;;;;;1.00;1.00;;;;;15.46;86.27;101227.44;4971027;28;8869;-69
2023/10/12 04:29:13;;;;;;;;;0.00;0.00;;;;;15.45;86.32;101242.06;4946157;28;8986;-70
2023/10/12 04:34:15;;;;;;;;;0.00;0.00;;;;;15.45;86.08;101265.66;4974912;28;8885;-69
2023/10/12 04:39:27;;;;;;;;;0.00;0.00;;;;;15.43;86.31;101268.56;4969928;28;8857;-68
2023/10/12 04:42:20;;;;;;;;;1.00;0.00;;;;;15.37;86.28;101274.03;4973004;28;8946;-68
2023/10/12 04:45:03;;;;;;;;;1.00;0.00;;;;;15.27;86.20;101269.91;4970269;28;9015;-69
2023/10/12 04:47:30;;;;;;;;;0.50;0.50;;;;;15.20;86.62;101277.22;4964982;28;8825;-69
2023/10/12 04:49:57;;;;;;;;;4.00;0.25;;;;;15.17;86.42;101274.09;4964380;28;8964;-68
2023/10/12 04:52:33;;;;;;;;;1.00;0.00;;;;;15.14;86.60;101266.38;4970896;28;9012;-69
2023/10/12 04:55:20;;;;;;;;;0.00;0.00;;;;;15.17;86.87;101274.94;4976386;28;8988;-69
2023/10/12 04:57:49;;;;;;;;;0.00;0.00;;;;;15.19;86.73;101274.72;4974556;28;9514;-69
2023/10/12 05:07:59;;;;;;;;;1.00;0.00;;;;;15.18;86.74;101284.72;4972178;28;8924;-69
2023/10/12 05:10:31;;;;;;;;;0.00;0.00;;;;;15.18;86.73;101284.72;4951719;28;8830;-69
2023/10/12 05:13:04;;;;;;;;;0.00;0.00;;;;;15.20;86.39;101290.78;4974354;28;8917;-69
2023/10/12 05:15:42;;;;;;;;;0.75;0.75;;;;;15.21;86.44;101286.19;4968590;28;8853;-69
2023/10/12 05:18:10;;;;;;;;;0.25;0.25;;;;;15.18;86.15;101292.88;4973201;28;8838;-69
2023/10/12 05:20:43;;;;;;;;;1.00;1.00;;;;;15.07;86.17;101304.41;4975150;28;8842;-69
2023/10/12 05:23:11;;;;;;;;;1.00;0.00;;;;;15.02;86.86;101307.72;4962034;28;8838;-69
2023/10/12 05:25:53;;;;;;;;;0.25;0.00;;;;;14.96;86.84;101307.75;4972307;28;8842;-69
2023/10/12 05:28:27;;;;;;;;;0.00;0.00;;;;;14.87;86.81;101304.44;4967415;28;8822;-69
2023/10/12 05:30:59;;;;;;;;;0.00;0.00;;;;;14.79;86.73;101294.66;4962972;28;8854;-69
2023/10/12 05:36:08;;;;;;;;;1.50;1.00;;;;;14.71;86.79;101294.88;4972977;28;9019;-69
2023/10/12 05:38:48;;;;;;;;;0.50;0.50;;;;;14.73;87.19;101306.31;4968701;28;8866;-69
2023/10/12 05:43:58;;;;;;;;;1.00;1.00;;;;;14.72;87.03;101320.91;4974674;28;8846;-69
2023/10/12 05:46:29;;;;;;;;;0.00;0.00;;;;;14.74;86.91;101320.69;4969964;28;8849;-69
2023/10/12 05:48:58;;;;;;;;;0.00;0.00;;;;;14.71;86.63;101319.25;4970718;28;8850;-70
2023/10/12 05:51:24;;;;;;;;;1.00;1.00;;;;;14.72;86.85;101315.50;4971968;28;9110;-69
2023/10/12 05:54:02;;;;;;;;;1.00;0.00;;;;;14.74;86.78;101310.69;4970378;28;8965;-69
2023/10/12 05:56:36;;;;;;;;;0.75;0.75;;;;;14.73;86.44;101309.03;4973548;28;8830;-69
2023/10/12 05:59:12;;;;;;;;;0.00;0.00;;;;;14.75;86.83;101301.53;4977168;28;8853;-69
2023/10/12 06:01:45;;;;;;;;;0.00;0.00;;;;;14.74;86.69;101299.84;4988001;28;8818;-69
2023/10/12 06:04:15;;;;;;;;;1.00;1.00;;;;;14.75;86.60;101304.25;4953788;28;8848;-69
2023/10/12 06:06:43;;;;;;;;;0.00;0.00;;;;;14.75;86.06;101306.94;4979164;28;8930;-68
2023/10/12 06:09:23;;;;;;;;;1.00;1.00;;;;;14.76;86.52;101310.50;4968353;28;9079;-68
2023/10/12 06:11:53;;;;;;;;;1.00;0.00;;;;;14.74;86.41;101324.22;4978697;28;9095;-69
2023/10/12 06:14:20;;;;;;;;;2.00;0.00;;;;;14.73;86.29;101317.16;4967971;28;8858;-68
2023/10/12 06:16:48;;;;;;;;;0.67;0.00;;;;;14.73;86.23;101317.16;4979234;28;8935;-69
2023/10/12 06:19:26;;;;;;;;;2.00;0.67;;;;;14.75;85.82;101315.06;4971035;28;9038;-69
2023/10/12 06:21:57;;;;;;;;;0.00;0.00;;;;;14.77;85.69;101328.41;4971178;28;9049;-69
2023/10/12 06:24:35;;;;;;;;;0.25;0.00;;;;;14.79;85.65;101327.16;4968170;28;9009;-69
2023/10/12 06:27:24;;;;;;;;;0.00;0.00;;;;;14.80;85.84;101330.72;4986605;28;8856;-69
2023/10/12 06:29:55;;;;;;;;;0.00;0.00;;;;;14.83;85.87;101333.84;4987563;28;8976;-69
2023/10/12 06:32:31;;;;;;;;;1.00;0.00;;;;;14.82;85.65;101337.56;4972254;28;9948;-70
2023/10/12 06:51:05;;;;;;;;;0.00;0.00;;;;;14.89;86.11;101342.16;4971009;28;9020;-70
2023/10/12 06:53:34;;;;;;;;;0.25;0.00;;;;;14.90;86.06;101349.25;4970112;28;8993;-70
2023/10/12 06:59:20;;;;;;;;;0.00;0.00;;;;;14.91;86.13;101359.03;4972263;28;8989;-70
2023/10/12 07:04:15;;;;;;;;;1.00;1.00;;;;;14.93;86.34;101363.22;4972246;28;8904;-69
2023/10/12 07:09:39;;;;;;;;;0.67;0.00;;;;;14.95;86.09;101365.69;4972383;28;9032;-69
2023/10/12 07:12:12;;;;;;;;;1.00;1.00;;;;;14.96;86.09;101362.78;4962962;28;9029;-68
2023/10/12 07:17:35;;;;;;;;;0.00;0.00;;;;;14.99;86.62;101370.50;4966311;28;8850;-69
2023/10/12 07:20:03;;;;;;;;;0.00;0.00;;;;;14.99;86.27;101383.22;4972211;28;8915;-68
2023/10/12 07:22:35;;;;;;;;;0.00;0.00;;;;;14.96;86.31;101378.22;4972189;28;9097;-69
2023/10/12 07:25:04;;;;;;;;;0.25;0.00;;;;;14.96;86.54;101387.19;4972326;28;9006;-69
2023/10/12 07:27:48;;;;;;;;;0.00;0.00;;;;;14.95;86.61;101384.66;4970735;28;8862;-68
2023/10/12 07:30:30;;;;;;;;;0.33;0.33;;;;;14.95;86.48;101390.97;4970693;28;9020;-69
2023/10/12 07:33:05;;;;;;;;;0.00;0.00;;;;;14.95;86.58;101388.25;4970710;28;9053;-69
2023/10/12 07:35:34;;;;;;;;;0.75;0.00;;;;;14.93;86.61;101382.19;4970615;28;8842;-68
2023/10/12 07:38:05;;;;;;;;;0.00;0.00;;;;;14.93;86.24;101381.34;4967734;28;8956;-69
2023/10/12 07:40:37;;;;;;;;;0.00;0.00;;;;;14.93;86.50;101395.75;4970331;28;9232;-69
2023/10/12 07:43:06;;;;;;;;;0.33;0.33;;;;;14.91;86.35;101388.84;4962708;28;8948;-70
2023/10/12 07:45:47;;;;;;;;;0.00;0.00;;;;;14.90;86.29;101385.31;4960897;28;8950;-68
2023/10/12 07:48:30;;;;;;;;;0.00;0.00;;;;;14.87;86.83;101364.06;4964484;28;9003;-68
2023/10/12 07:51:15;;;;;;;;;0.00;0.00;;;;;14.84;86.51;101367.19;4962457;28;9592;-68
2023/10/12 07:53:56;;;;;;;;;0.00;0.00;;;;;14.82;86.70;101371.97;4960865;28;8904;-68
2023/10/12 07:56:33;;;;;;;;;0.00;0.00;;;;;14.79;86.81;101375.94;4961462;28;8907;-68
2023/10/12 07:59:01;;;;;;;;;0.00;0.00;;;;;14.82;86.73;101385.53;4965306;28;8844;-69
2023/10/12 08:04:00;;;;;;;;;0.67;0.00;;;;;14.83;86.96;101388.03;4966911;28;9159;-69
2023/10/12 08:09:05;;;;;;;;;1.00;1.00;;;;;14.81;86.81;101389.28;4970667;28;8980;-68
2023/10/12 08:11:34;;;;;;;;;1.00;0.00;;;;;14.82;87.20;101397.19;4970655;28;9009;-69
2023/10/12 08:14:39;;;;;;;;;1.67;1.67;;;;;14.83;87.32;101388.03;4970906;28;8928;-68
2023/10/12 08:20:43;;;;;;;;;0.25;0.25;;;;;14.79;87.28;101411.19;4967277;28;9107;-68
2023/10/12 08:22:42;;;;;;;;;1.00;0.00;;;;;14.81;87.57;101409.09;4970480;28;9029;-69
2023/10/12 08:25:09;;;;;;;;;1.00;0.00;;;;;14.83;86.97;101411.59;4970948;28;8962;-69
2023/10/12 08:28:05;;;;;;;;;2.00;0.00;;;;;14.83;87.13;101414.31;4970777;28;8922;-68
2023/10/12 08:33:48;;;;;;;;;0.00;0.00;;;;;14.76;87.08;101361.97;4970916;28;9012;-68
2023/10/12 08:39:07;;;;;;;;;1.33;1.33;;;;;14.76;87.25;101398.03;4970942;28;9005;-69
2023/10/12 08:41:57;;;;;;;;;0.67;0.00;;;;;14.78;87.02;101398.66;4970948;28;9156;-68
2023/10/12 08:44:24;;;;;;;;;0.00;0.00;;;;;14.78;86.86;101398.66;4969460;28;9059;-69
2023/10/12 08:46:59;;;;;;;;;0.50;0.25;;;;;14.78;86.75;101385.09;4969199;28;9091;-68
2023/10/12 08:49:34;;;;;;;;;0.67;0.67;;;;;14.77;86.87;101385.31;4969637;28;8842;-69
2023/10/12 08:52:15;;;;;;;;;0.25;0.25;;;;;14.78;87.21;101378.84;4970819;28;9113;-69
2023/10/12 08:54:45;;;;;;;;;0.00;0.00;;;;;14.81;87.06;101376.56;4969635;28;8858;-68
2023/10/12 08:57:43;;;;;;;;;0.00;0.00;;;;;14.84;87.12;101384.28;4969170;28;8993;-68
2023/10/12 09:00:39;;;;;;;;;2.00;1.00;;;;;14.88;87.06;101392.00;4970969;28;8830;-68
2023/10/12 09:05:51;;;;;;;;;0.33;0.33;;;;;14.79;87.61;101386.78;4970801;28;8932;-68
2023/10/12 09:10:49;;;;;;;;;0.00;0.00;;;;;14.86;87.87;101388.66;4970485;28;8967;-68
2023/10/12 09:13:17;;;;;;;;;1.00;1.00;;;;;14.90;87.87;101390.72;4970604;28;8939;-70
2023/10/12 09:15:48;;;;;;;;;0.00;0.00;;;;;14.93;88.04;101386.78;4969155;28;8968;-70
2023/10/12 09:18:16;;;;;;;;;2.00;0.00;;;;;14.93;87.80;101384.91;4970721;28;8954;-69
2023/10/12 09:23:39;;;;;;;;;0.00;0.00;;;;;14.95;88.04;101395.53;4970407;28;8848;-69
2023/10/12 09:29:23;;;;;;;;;0.50;0.50;;;;;14.98;88.02;101378.84;4972084;28;9735;-68
2023/10/12 09:36:27;;;;;;;;;0.00;0.00;;;;;15.03;88.38;101368.22;4972778;28;9651;-69
2023/10/12 09:39:00;;;;;;;;;1.00;1.00;;;;;15.05;88.25;101375.09;4973926;28;9101;-69
2023/10/12 09:41:37;;;;;;;;;0.00;0.00;;;;;15.02;88.12;101371.94;4974212;28;8939;-70
2023/10/12 09:44:06;;;;;;;;;0.00;0.00;;;;;15.02;88.62;101369.25;4974270;28;8956;-69
2023/10/12 09:46:33;;;;;;;;;1.00;1.00;;;;;15.03;89.10;101370.94;4972582;28;8822;-69
2023/10/12 09:49:06;;;;;;;;;0.00;0.00;;;;;15.04;88.70;101376.13;4972845;28;9025;-70
2023/10/12 09:51:42;;;;;;;;;0.25;0.00;;;;;15.06;88.91;101373.19;4973895;28;8841;-69
2023/10/12 09:54:18;;;;;;;;;1.25;1.25;;;;;15.06;88.89;101373.19;4972777;28;9549;-69
2023/10/12 09:56:57;;;;;;;;;0.67;0.00;;;;;15.04;88.90;101375.31;4973864;28;8900;-69
2023/10/12 09:59:29;;;;;;;;;1.25;1.25;;;;;15.03;88.96;101368.22;4972688;28;8939;-69
2023/10/12 10:02:02;;;;;;;;;1.00;1.00;;;;;15.02;89.31;101363.81;4973823;28;8866;-69
2023/10/12 10:04:34;;;;;;;;;0.00;0.00;;;;;14.99;89.15;101364.22;4988573;28;8981;-69
2023/10/12 10:07:25;;;;;;;;;0.75;0.75;;;;;14.96;89.31;101364.69;4973380;28;8908;-69
2023/10/12 10:10:00;;;;;;;;;1.00;1.00;;;;;14.96;89.72;101359.25;4988246;28;8842;-69
2023/10/12 10:12:35;;;;;;;;;0.00;0.00;;;;;14.98;90.29;101357.16;4973358;28;8942;-69
2023/10/12 10:15:20;;;;;;;;;0.50;0.25;;;;;14.99;90.14;101353.38;4973396;28;9019;-69
2023/10/12 10:17:55;;;;;;;;;0.25;0.25;;;;;15.02;90.02;101348.38;4973394;28;8830;-69
2023/10/12 10:22:56;;;;;;;;;0.00;0.00;;;;;15.03;89.67;101344.66;4973657;28;8825;-69
2023/10/12 10:25:27;;;;;;;;;1.00;1.00;;;;;14.96;89.88;101348.41;4973380;28;8911;-69
2023/10/12 10:27:58;;;;;;;;;0.75;0.75;;;;;14.97;90.35;101347.34;4971728;28;9008;-70
2023/10/12 10:30:36;;;;;;;;;2.00;1.00;;;;;14.96;90.32;101340.28;4973033;28;8826;-69
2023/10/12 10:33:17;;;;;;;;;0.00;0.00;;;;;14.96;89.90;101343.81;4972091;28;8904;-69
2023/10/12 10:41:18;;;;;;;;;0.00;0.00;;;;;14.98;90.54;101335.47;4972915;28;9725;-69
2023/10/12 10:43:46;;;;;;;;;1.00;1.00;;;;;14.99;90.77;101335.28;4972921;28;8952;-69
2023/10/12 10:46:16;;;;;;;;;0.00;0.00;;;;;15.02;90.77;101342.13;4972750;28;9521;-69
2023/10/12 10:48:50;;;;;;;;;0.00;0.00;;;;;15.04;90.58;101334.63;4972810;28;8912;-69
2023/10/12 10:51:42;;;;;;;;;0.00;0.00;;;;;15.03;90.96;101335.69;4931743;29;8948;-69
2023/10/12 10:54:18;;;;;;;;;0.25;0.25;;;;;15.05;90.58;101330.88;4931846;29;8857;-69
2023/10/12 10:56:49;;;;;;;;;1.00;1.00;;;;;15.05;90.73;101330.88;4931869;29;8841;-69
2023/10/12 10:59:18;;;;;;;;;1.00;1.00;;;;;15.06;90.55;101327.94;4915996;29;8814;-69
2023/10/12 11:01:48;;;;;;;;;1.00;1.00;;;;;15.07;90.82;101324.19;4931748;29;8880;-69
2023/10/12 11:07:06;;;;;;;;;0.25;0.25;;;;;14.99;90.66;101312.72;4931665;29;8909;-69
2023/10/12 11:12:25;;;;;;;;;0.00;0.00;;;;;15.01;91.15;101313.34;4972464;28;8896;-69
2023/10/12 11:15:09;;;;;;;;;1.00;1.00;;;;;15.03;91.74;101306.69;4972494;28;9486;-69
2023/10/12 11:17:41;;;;;;;;;1.00;1.00;;;;;15.00;91.31;101309.81;4971144;28;8962;-69
2023/10/12 11:20:35;;;;;;;;;1.33;1.33;;;;;15.00;91.28;101298.97;4970777;28;8946;-69
2023/10/12 11:23:06;;;;;;;;;2.00;0.00;;;;;14.96;91.77;101305.88;4972265;28;9751;-69
2023/10/12 11:25:39;;;;;;;;;3.00;2.00;;;;;14.92;91.71;101303.78;4972226;28;8988;-69
2023/10/12 11:28:23;;;;;;;;;0.25;0.25;;;;;14.90;91.72;101298.56;4970588;28;9023;-69
2023/10/12 11:31:01;;;;;;;;;2.00;0.33;;;;;14.90;92.00;101295.84;4971973;28;8968;-69
2023/10/12 11:33:29;;;;;;;;;1.00;1.00;;;;;14.90;92.27;101301.28;4971920;28;9127;-69
2023/10/12 11:36:00;;;;;;;;;3.00;1.67;;;;;14.91;92.10;101302.09;4971989;28;8841;-69
2023/10/12 11:38:28;;;;;;;;;1.00;1.00;;;;;14.93;92.39;101292.72;4970808;28;9004;-69
2023/10/12 11:40:58;;;;;;;;;1.00;1.00;;;;;14.95;91.90;101287.09;4970496;28;8849;-69
2023/10/12 11:43:45;;;;;;;;;1.00;1.00;;;;;15.00;92.05;101295.44;4970691;28;8963;-69
2023/10/12 11:46:14;;;;;;;;;1.25;0.50;;;;;15.01;92.19;101289.78;4971819;28;8829;-69
2023/10/12 11:48:41;;;;;;;;;1.00;1.00;;;;;14.99;92.06;101288.31;4971807;28;8846;-69
2023/10/12 11:51:12;;;;;;;;;2.25;2.00;;;;;14.99;91.70;101272.06;4970682;28;8904;-68
2023/10/12 11:53:39;;;;;;;;;2.75;2.00;;;;;14.95;91.59;101259.97;4986447;28;8853;-68
2023/10/12 11:56:17;;;;;;;;;2.00;2.00;;;;;14.92;92.11;101266.69;4971383;28;8907;-68
2023/10/12 11:58:54;;;;;;;;;0.00;0.00;;;;;14.95;92.45;101262.69;4971542;28;8904;-68
2023/10/12 12:01:22;;;;;;;;;2.00;2.00;;;;;14.93;91.88;101259.38;4970011;28;9672;-68
2023/10/12 12:03:53;;;;;;;;;1.00;1.00;;;;;14.94;92.74;101269.16;4971449;28;8842;-68
2023/10/12 12:06:21;;;;;;;;;1.50;1.50;;;;;14.95;92.38;101265.41;4969999;28;9620;-68
2023/10/12 12:08:49;;;;;;;;;0.25;0.25;;;;;14.96;92.71;101273.34;4970002;28;8854;-68
2023/10/12 12:11:20;;;;;;;;;1.00;1.00;;;;;15.00;92.71;101258.31;4971288;28;9465;-68
2023/10/12 12:13:53;;;;;;;;;1.00;1.00;;;;;14.93;92.18;101245.81;4954000;28;8928;-67
2023/10/12 12:16:22;;;;;;;;;1.00;1.00;;;;;14.82;92.24;101250.00;4970957;28;8838;-69
2023/10/12 12:18:51;;;;;;;;;1.00;1.00;;;;;14.81;92.93;101259.19;4970026;28;8924;-67
2023/10/12 12:21:29;;;;;;;;;1.50;1.50;;;;;14.85;93.39;101263.13;4985933;28;8896;-68
2023/10/12 12:24:00;;;;;;;;;1.00;1.00;;;;;14.89;nan;101272.50;4971157;28;8857;-67
2023/10/12 12:26:33;;;;;;;;;1.25;1.25;;;;;14.92;93.54;101263.97;4971100;28;8830;-68
2023/10/12 12:29:09;;;;;;;;;1.00;1.00;;;;;14.93;93.12;101267.50;4970811;28;8844;-67
2023/10/12 12:31:36;;;;;;;;;1.00;1.00;;;;;14.95;93.26;101274.38;4971048;28;8940;-67
2023/10/12 12:34:06;;;;;;;;;2.00;2.00;;;;;14.96;93.12;101275.22;4969742;28;8846;-68
2023/10/12 12:36:33;;;;;;;;;1.00;1.00;;;;;14.96;93.00;101269.78;4971133;28;9633;-68
2023/10/12 12:39:01;;;;;;;;;1.00;1.00;;;;;14.95;92.97;101266.25;4971012;28;8989;-68
2023/10/12 12:41:30;;;;;;;;;1.00;1.00;;;;;14.91;92.82;101272.28;4969798;28;8838;-68
2023/10/12 12:43:59;;;;;;;;;1.00;1.00;;;;;14.92;93.29;101272.09;4970976;28;9579;-68
2023/10/12 12:46:26;;;;;;;;;1.75;1.75;;;;;14.95;93.62;101250.00;4970774;28;8877;-68
2023/10/12 12:48:52;;;;;;;;;3.33;2.67;;;;;14.94;93.25;101232.03;4969593;28;8857;-68
2023/10/12 12:51:19;;;;;;;;;2.00;2.00;;;;;14.96;93.12;101232.66;4970680;28;9133;-68
2023/10/12 12:53:48;;;;;;;;;2.00;2.00;;;;;14.96;93.23;101223.72;4953290;28;9045;-68
2023/10/12 12:56:16;;;;;;;;;1.00;1.00;;;;;14.94;93.29;101223.91;4970687;28;9151;-68
2023/10/12 12:58:47;;;;;;;;;1.00;1.00;;;;;14.94;93.46;101217.66;4970656;28;8953;-68
2023/10/12 13:01:23;;;;;;;;;4.00;2.50;;;;;14.88;93.38;101200.38;4965433;28;9010;-69
2023/10/12 13:03:57;;;;;;;;;2.00;2.00;;;;;14.79;93.88;101185.41;4971566;28;8996;-68
2023/10/12 13:06:25;;;;;;;;;0.00;0.00;;;;;14.82;94.34;101212.88;4972186;28;8938;-68
2023/10/12 13:08:52;;;;;;;;;1.67;0.33;;;;;14.86;94.67;101226.03;4972567;28;8822;-69
2023/10/12 13:11:22;;;;;;;;;0.00;0.00;;;;;14.93;94.74;101234.97;4974717;28;8908;-68
2023/10/12 13:13:49;;;;;;;;;0.50;0.50;;;;;14.97;94.68;101228.91;4974765;28;8904;-68
2023/10/12 13:16:16;;;;;;;;;1.00;1.00;;;;;14.98;94.16;101216.19;4972359;28;8874;-68
2023/10/12 13:18:46;;;;;;;;;2.00;2.00;;;;;14.97;93.90;101203.69;4972887;28;8950;-67
2023/10/12 13:21:14;;;;;;;;;2.00;2.00;;;;;14.95;94.05;101201.19;4974133;28;9021;-70
2023/10/12 13:23:42;;;;;;;;;0.50;0.50;;;;;14.93;94.10;101203.28;4974174;28;9061;-68
2023/10/12 13:26:12;;;;;;;;;1.25;1.25;;;;;14.94;94.27;101180.53;4966341;28;8853;-68
2023/10/12 13:28:41;;;;;;;;;2.00;1.50;;;;;14.95;94.09;101167.81;4974322;28;8860;-68
2023/10/12 13:31:11;;;;;;;;;2.25;1.00;;;;;14.94;94.49;101106.50;4973907;28;8861;-68
2023/10/12 13:33:40;;;;;;;;;4.00;3.00;;;;;14.84;94.97;101091.56;4970925;28;8902;-68
2023/10/12 13:36:08;;;;;;;;;2.00;2.00;;;;;14.88;95.54;101129.06;4976415;28;9082;-68
2023/10/12 13:38:37;;;;;;;;;7.00;6.00;;;;;14.95;95.86;101184.06;4972706;28;9074;-68
2023/10/12 13:41:03;;;;;;;;;6.67;6.67;;;;;14.96;95.30;101202.84;4974183;28;9086;-68
2023/10/12 13:43:30;;;;;;;;;5.00;5.00;;;;;15.01;95.72;101194.06;4973935;28;9871;-68
2023/10/12 13:45:58;;;;;;;;;3.00;2.00;;;;;15.00;95.67;101201.38;4973292;28;9309;-68
2023/10/12 13:48:29;;;;;;;;;2.00;2.00;;;;;15.02;96.00;101193.84;4972523;28;9091;-68
2023/10/12 13:51:04;;;;;;;;;1.00;1.00;;;;;15.13;96.38;101197.78;4972847;28;8970;-69
2023/10/12 13:53:36;;;;;;;;;1.25;1.00;;;;;15.22;96.05;101207.31;4974006;28;8928;-70
2023/10/12 13:56:08;;;;;;;;;2.67;2.00;;;;;15.30;96.15;101208.94;4968541;28;8830;-70
2023/10/12 13:58:36;;;;;;;;;3.67;3.67;;;;;15.35;95.54;101211.84;4973682;28;8945;-69
2023/10/12 14:01:05;;;;;;;;;4.00;3.00;;;;;15.38;95.36;101211.41;4973483;28;9020;-69
2023/10/12 14:03:38;;;;;;;;;1.33;1.33;;;;;15.40;95.30;101206.63;4973538;28;9051;-70
2023/10/12 14:06:06;;;;;;;;;1.75;1.75;;;;;15.39;94.49;101213.06;4973451;28;8992;-70
2023/10/12 14:08:40;;;;;;;;;2.00;2.00;;;;;15.39;94.81;101223.09;4973646;28;8854;-69
2023/10/12 14:11:10;;;;;;;;;2.00;2.00;;;;;15.41;94.66;101215.59;4973350;28;9719;-69
2023/10/12 14:13:36;;;;;;;;;1.00;1.00;;;;;15.38;94.74;101211.41;4971016;28;9005;-69
2023/10/12 14:16:07;;;;;;;;;1.00;1.00;;;;;15.42;94.42;101212.63;4973154;28;8862;-69
2023/10/12 14:18:33;;;;;;;;;1.50;1.50;;;;;15.42;94.50;101207.22;4973345;28;8826;-68
2023/10/12 14:21:00;;;;;;;;;1.75;1.75;;;;;15.42;94.45;101201.78;4971839;28;9066;-69
2023/10/12 14:23:26;;;;;;;;;3.00;3.00;;;;;15.42;94.30;101196.38;4972896;28;8854;-69
2023/10/12 14:25:57;;;;;;;;;2.00;2.00;;;;;15.46;94.57;101197.59;4971659;28;8939;-69
2023/10/12 14:28:31;;;;;;;;;2.75;1.00;;;;;15.49;94.31;101197.16;4971717;28;9132;-69
2023/10/12 14:30:57;;;;;;;;;4.25;2.25;;;;;15.51;94.18;101200.47;4972791;28;8834;-69
2023/10/12 14:33:30;;;;;;;;;3.00;3.00;;;;;15.52;94.17;101188.59;4972825;28;8918;-69
2023/10/12 14:35:57;;;;;;;;;1.67;1.67;;;;;15.54;93.97;101193.78;4971572;28;8865;-69